sensor_id;sensor_type;location;lat;lon;timestamp;temperature;humidity
21355;DHT22;10835;50.148;19.760;2024-03-06T00:01:10;16.70;50.00
21355;DHT22;10835;50.148;19.760;2024-03-06T00:03:39;16.40;50.10
21355;DHT22;10835;50.148;19.760;2024-03-06T00:06:07;16.80;49.70
21355;DHT22;10835;50.148;19.760;2024-03-06T00:08:37;16.30;50.20
21355;DHT22;10835;50.148;19.760;2024-03-06T00:11:06;16.70;50.30
21355;DHT22;10835;50.148;19.760;2024-03-06T00:13:35;16.70;50.20
21355;DHT22;10835;50.148;19.760;2024-03-06T00:16:04;17.00;49.80
21355;DHT22;10835;50.148;19.760;2024-03-06T00:18:33;17.10;49.40
21355;DHT22;10835;50.148;19.760;2024-03-06T00:21:01;17.10;49.00
21355;DHT22;10835;50.148;19.760;2024-03-06T00:23:30;17.20;48.90
21355;DHT22;10835;50.148;19.760;2024-03-06T00:26:00;17.30;48.60
21355;DHT22;10835;50.148;19.760;2024-03-06T00:28:29;17.40;48.20
21355;DHT22;10835;50.148;19.760;2024-03-06T00:30:58;17.20;48.20
21355;DHT22;10835;50.148;19.760;2024-03-06T00:33:26;16.90;48.30
21355;DHT22;10835;50.148;19.760;2024-03-06T00:35:54;17.00;48.40
21355;DHT22;10835;50.148;19.760;2024-03-06T00:38:23;17.10;48.50
21355;DHT22;10835;50.148;19.760;2024-03-06T00:40:51;16.40;48.80
21355;DHT22;10835;50.148;19.760;2024-03-06T00:43:21;16.50;49.60
21355;DHT22;10835;50.148;19.760;2024-03-06T00:45:50;16.30;50.00
21355;DHT22;10835;50.148;19.760;2024-03-06T00:48:18;16.50;49.80
21355;DHT22;10835;50.148;19.760;2024-03-06T00:50:47;16.80;49.30
21355;DHT22;10835;50.148;19.760;2024-03-06T00:53:15;16.90;48.90
21355;DHT22;10835;50.148;19.760;2024-03-06T00:55:44;17.30;49.00
21355;DHT22;10835;50.148;19.760;2024-03-06T00:58:13;17.50;48.20
21355;DHT22;10835;50.148;19.760;2024-03-06T01:00:42;17.60;48.30
21355;DHT22;10835;50.148;19.760;2024-03-06T01:03:11;17.60;48.30
21355;DHT22;10835;50.148;19.760;2024-03-06T01:05:39;17.60;48.30
21355;DHT22;10835;50.148;19.760;2024-03-06T01:08:07;17.70;48.20
21355;DHT22;10835;50.148;19.760;2024-03-06T01:10:36;17.80;47.80
21355;DHT22;10835;50.148;19.760;2024-03-06T01:13:05;17.20;47.50
21355;DHT22;10835;50.148;19.760;2024-03-06T01:15:33;17.30;47.50
21355;DHT22;10835;50.148;19.760;2024-03-06T01:18:03;16.90;47.60
21355;DHT22;10835;50.148;19.760;2024-03-06T01:20:32;16.70;48.30
21355;DHT22;10835;50.148;19.760;2024-03-06T01:23:01;17.00;48.70
21355;DHT22;10835;50.148;19.760;2024-03-06T01:25:29;17.10;47.90
21355;DHT22;10835;50.148;19.760;2024-03-06T01:27:58;17.40;47.70
21355;DHT22;10835;50.148;19.760;2024-03-06T01:30:26;17.50;47.10
21355;DHT22;10835;50.148;19.760;2024-03-06T01:32:55;17.50;47.30
21355;DHT22;10835;50.148;19.760;2024-03-06T01:35:25;17.40;47.10
21355;DHT22;10835;50.148;19.760;2024-03-06T01:37:53;17.50;46.90
21355;DHT22;10835;50.148;19.760;2024-03-06T01:40:22;17.50;46.80
21355;DHT22;10835;50.148;19.760;2024-03-06T01:42:51;17.50;47.00
21355;DHT22;10835;50.148;19.760;2024-03-06T01:45:19;17.30;46.70
21355;DHT22;10835;50.148;19.760;2024-03-06T01:47:48;16.20;47.50
21355;DHT22;10835;50.148;19.760;2024-03-06T01:50:18;15.40;48.80
21355;DHT22;10835;50.148;19.760;2024-03-06T01:52:51;15.30;49.40
21355;DHT22;10835;50.148;19.760;2024-03-06T01:55:19;15.90;50.70
21355;DHT22;10835;50.148;19.760;2024-03-06T01:57:48;15.60;50.60
21355;DHT22;10835;50.148;19.760;2024-03-06T02:00:17;15.80;50.40
21355;DHT22;10835;50.148;19.760;2024-03-06T02:02:46;15.90;50.20
21355;DHT22;10835;50.148;19.760;2024-03-06T02:05:15;16.10;50.30
21355;DHT22;10835;50.148;19.760;2024-03-06T02:07:44;16.30;50.30
21355;DHT22;10835;50.148;19.760;2024-03-06T02:10:14;15.80;49.80
21355;DHT22;10835;50.148;19.760;2024-03-06T02:12:43;16.00;49.60
21355;DHT22;10835;50.148;19.760;2024-03-06T02:15:12;16.30;49.00
21355;DHT22;10835;50.148;19.760;2024-03-06T02:17:41;16.60;49.20
21355;DHT22;10835;50.148;19.760;2024-03-06T02:20:11;16.40;49.20
21355;DHT22;10835;50.148;19.760;2024-03-06T02:22:43;15.80;49.10
21355;DHT22;10835;50.148;19.760;2024-03-06T02:25:12;15.30;50.60
21355;DHT22;10835;50.148;19.760;2024-03-06T02:27:42;14.70;51.00
21355;DHT22;10835;50.148;19.760;2024-03-06T02:30:12;14.60;52.10
21355;DHT22;10835;50.148;19.760;2024-03-06T02:32:40;14.70;52.00
21355;DHT22;10835;50.148;19.760;2024-03-06T02:35:11;14.70;52.30
21355;DHT22;10835;50.148;19.760;2024-03-06T02:37:42;14.40;52.30
21355;DHT22;10835;50.148;19.760;2024-03-06T02:40:12;13.50;53.30
21355;DHT22;10835;50.148;19.760;2024-03-06T02:42:41;13.40;54.50
21355;DHT22;10835;50.148;19.760;2024-03-06T02:45:09;13.90;54.70
21355;DHT22;10835;50.148;19.760;2024-03-06T02:47:38;13.70;54.30
21355;DHT22;10835;50.148;19.760;2024-03-06T02:50:07;13.40;54.90
21355;DHT22;10835;50.148;19.760;2024-03-06T02:52:35;13.00;55.50
21355;DHT22;10835;50.148;19.760;2024-03-06T02:55:06;12.70;56.60
21355;DHT22;10835;50.148;19.760;2024-03-06T02:57:34;12.70;57.00
21355;DHT22;10835;50.148;19.760;2024-03-06T03:00:04;13.40;57.20
21355;DHT22;10835;50.148;19.760;2024-03-06T03:02:36;13.50;56.10
21355;DHT22;10835;50.148;19.760;2024-03-06T03:05:05;14.60;54.90
21355;DHT22;10835;50.148;19.760;2024-03-06T03:07:34;15.20;53.10
21355;DHT22;10835;50.148;19.760;2024-03-06T03:10:03;15.30;52.40
21355;DHT22;10835;50.148;19.760;2024-03-06T03:12:33;15.90;51.60
21355;DHT22;10835;50.148;19.760;2024-03-06T03:15:02;16.20;50.70
21355;DHT22;10835;50.148;19.760;2024-03-06T03:17:30;16.40;49.70
21355;DHT22;10835;50.148;19.760;2024-03-06T03:19:59;16.70;48.90
21355;DHT22;10835;50.148;19.760;2024-03-06T03:22:28;16.70;48.50
21355;DHT22;10835;50.148;19.760;2024-03-06T03:24:56;16.90;48.30
21355;DHT22;10835;50.148;19.760;2024-03-06T03:27:25;17.00;47.90
21355;DHT22;10835;50.148;19.760;2024-03-06T03:29:54;17.10;48.20
21355;DHT22;10835;50.148;19.760;2024-03-06T03:32:23;17.00;47.80
21355;DHT22;10835;50.148;19.760;2024-03-06T03:34:52;17.20;48.10
21355;DHT22;10835;50.148;19.760;2024-03-06T03:37:20;16.70;48.20
21355;DHT22;10835;50.148;19.760;2024-03-06T03:39:48;16.70;48.60
21355;DHT22;10835;50.148;19.760;2024-03-06T03:42:17;16.80;48.30
21355;DHT22;10835;50.148;19.760;2024-03-06T03:44:46;16.80;48.30
21355;DHT22;10835;50.148;19.760;2024-03-06T03:47:16;16.80;48.10
21355;DHT22;10835;50.148;19.760;2024-03-06T03:49:44;16.80;48.00
21355;DHT22;10835;50.148;19.760;2024-03-06T03:52:23;16.80;48.00
21355;DHT22;10835;50.148;19.760;2024-03-06T03:54:51;17.00;48.00
21355;DHT22;10835;50.148;19.760;2024-03-06T03:57:20;17.10;47.70
21355;DHT22;10835;50.148;19.760;2024-03-06T03:59:48;17.30;47.40
21355;DHT22;10835;50.148;19.760;2024-03-06T04:02:19;17.40;47.10
21355;DHT22;10835;50.148;19.760;2024-03-06T04:04:48;17.30;46.40
21355;DHT22;10835;50.148;19.760;2024-03-06T04:07:16;17.20;46.90
21355;DHT22;10835;50.148;19.760;2024-03-06T04:09:46;16.90;46.90
21355;DHT22;10835;50.148;19.760;2024-03-06T04:12:14;16.80;47.10
21355;DHT22;10835;50.148;19.760;2024-03-06T04:14:43;16.80;47.40
21355;DHT22;10835;50.148;19.760;2024-03-06T04:17:12;17.00;46.80
21355;DHT22;10835;50.148;19.760;2024-03-06T04:19:42;16.70;47.00
21355;DHT22;10835;50.148;19.760;2024-03-06T04:22:12;16.70;47.00
21355;DHT22;10835;50.148;19.760;2024-03-06T04:24:41;16.90;47.20
21355;DHT22;10835;50.148;19.760;2024-03-06T04:27:09;17.00;46.80
21355;DHT22;10835;50.148;19.760;2024-03-06T04:29:38;17.00;46.50
21355;DHT22;10835;50.148;19.760;2024-03-06T04:32:07;16.80;46.80
21355;DHT22;10835;50.148;19.760;2024-03-06T04:34:35;17.00;47.20
21355;DHT22;10835;50.148;19.760;2024-03-06T04:37:06;17.10;46.80
21355;DHT22;10835;50.148;19.760;2024-03-06T04:39:34;17.20;46.80
21355;DHT22;10835;50.148;19.760;2024-03-06T04:42:03;17.00;46.80
21355;DHT22;10835;50.148;19.760;2024-03-06T04:44:33;16.80;46.80
21355;DHT22;10835;50.148;19.760;2024-03-06T04:47:02;16.90;47.00
21355;DHT22;10835;50.148;19.760;2024-03-06T04:49:33;16.90;46.80
21355;DHT22;10835;50.148;19.760;2024-03-06T04:52:02;16.80;47.10
21355;DHT22;10835;50.148;19.760;2024-03-06T04:54:32;16.80;47.70
21355;DHT22;10835;50.148;19.760;2024-03-06T04:57:00;16.70;48.00
21355;DHT22;10835;50.148;19.760;2024-03-06T04:59:29;16.60;47.60
21355;DHT22;10835;50.148;19.760;2024-03-06T05:01:58;16.50;48.50
21355;DHT22;10835;50.148;19.760;2024-03-06T05:04:26;16.50;48.50
21355;DHT22;10835;50.148;19.760;2024-03-06T05:07:12;16.50;48.40
21355;DHT22;10835;50.148;19.760;2024-03-06T05:10:00;15.50;49.00
21355;DHT22;10835;50.148;19.760;2024-03-06T05:12:47;15.70;50.10
21355;DHT22;10835;50.148;19.760;2024-03-06T05:15:33;15.30;50.60
21355;DHT22;10835;50.148;19.760;2024-03-06T05:18:19;15.70;51.00
21355;DHT22;10835;50.148;19.760;2024-03-06T05:21:05;15.60;50.80
21355;DHT22;10835;50.148;19.760;2024-03-06T05:23:50;15.80;50.90
21355;DHT22;10835;50.148;19.760;2024-03-06T05:26:39;16.00;50.50
21355;DHT22;10835;50.148;19.760;2024-03-06T05:29:25;15.60;50.20
21355;DHT22;10835;50.148;19.760;2024-03-06T05:32:11;14.40;51.80
21355;DHT22;10835;50.148;19.760;2024-03-06T05:34:57;13.70;53.90
21355;DHT22;10835;50.148;19.760;2024-03-06T05:37:43;13.70;54.40
21355;DHT22;10835;50.148;19.760;2024-03-06T05:40:29;14.00;54.30
21355;DHT22;10835;50.148;19.760;2024-03-06T05:43:21;13.90;54.20
21355;DHT22;10835;50.148;19.760;2024-03-06T05:46:09;14.50;54.00
21355;DHT22;10835;50.148;19.760;2024-03-06T05:48:55;15.40;52.50
21355;DHT22;10835;50.148;19.760;2024-03-06T05:51:40;15.90;51.30
21355;DHT22;10835;50.148;19.760;2024-03-06T05:54:26;16.00;50.30
21355;DHT22;10835;50.148;19.760;2024-03-06T05:57:13;15.60;50.70
21355;DHT22;10835;50.148;19.760;2024-03-06T06:00:01;15.70;51.60
21355;DHT22;10835;50.148;19.760;2024-03-06T06:02:37;15.40;50.90
21355;DHT22;10835;50.148;19.760;2024-03-06T06:05:07;15.40;51.50
21355;DHT22;10835;50.148;19.760;2024-03-06T06:07:50;16.70;51.00
21355;DHT22;10835;50.148;19.760;2024-03-06T06:10:19;17.10;49.60
21355;DHT22;10835;50.148;19.760;2024-03-06T06:12:48;17.40;48.80
21355;DHT22;10835;50.148;19.760;2024-03-06T06:15:18;17.60;48.80
21355;DHT22;10835;50.148;19.760;2024-03-06T06:17:47;17.90;48.10
21355;DHT22;10835;50.148;19.760;2024-03-06T06:20:16;17.20;48.30
21355;DHT22;10835;50.148;19.760;2024-03-06T06:22:45;16.80;48.50
21355;DHT22;10835;50.148;19.760;2024-03-06T06:25:14;16.40;49.60
21355;DHT22;10835;50.148;19.760;2024-03-06T06:27:43;16.80;49.90
21355;DHT22;10835;50.148;19.760;2024-03-06T06:30:12;17.20;48.90
21355;DHT22;10835;50.148;19.760;2024-03-06T06:32:43;16.60;49.50
21355;DHT22;10835;50.148;19.760;2024-03-06T06:35:11;16.10;50.10
21355;DHT22;10835;50.148;19.760;2024-03-06T06:37:41;16.20;50.50
21355;DHT22;10835;50.148;19.760;2024-03-06T06:40:10;16.00;50.50
21355;DHT22;10835;50.148;19.760;2024-03-06T06:42:44;16.70;50.20
21355;DHT22;10835;50.148;19.760;2024-03-06T06:45:17;16.80;49.90
21355;DHT22;10835;50.148;19.760;2024-03-06T06:47:48;16.40;49.30
21355;DHT22;10835;50.148;19.760;2024-03-06T06:50:18;15.90;50.10
21355;DHT22;10835;50.148;19.760;2024-03-06T06:52:50;15.90;50.80
21355;DHT22;10835;50.148;19.760;2024-03-06T06:55:18;16.10;51.10
21355;DHT22;10835;50.148;19.760;2024-03-06T06:57:49;16.40;50.50
21355;DHT22;10835;50.148;19.760;2024-03-06T07:00:19;16.30;50.60
21355;DHT22;10835;50.148;19.760;2024-03-06T07:02:51;16.30;50.70
21355;DHT22;10835;50.148;19.760;2024-03-06T07:05:20;16.20;50.80
21355;DHT22;10835;50.148;19.760;2024-03-06T07:07:48;16.10;50.70
21355;DHT22;10835;50.148;19.760;2024-03-06T07:10:21;15.70;51.40
21355;DHT22;10835;50.148;19.760;2024-03-06T07:12:50;16.60;51.40
21355;DHT22;10835;50.148;19.760;2024-03-06T07:15:19;15.90;51.60
21355;DHT22;10835;50.148;19.760;2024-03-06T07:17:47;15.80;52.00
21355;DHT22;10835;50.148;19.760;2024-03-06T07:20:19;16.30;51.50
21355;DHT22;10835;50.148;19.760;2024-03-06T07:22:56;15.90;51.50
21355;DHT22;10835;50.148;19.760;2024-03-06T07:25:25;16.40;51.50
21355;DHT22;10835;50.148;19.760;2024-03-06T07:27:54;16.40;51.50
21355;DHT22;10835;50.148;19.760;2024-03-06T07:30:23;17.50;50.50
21355;DHT22;10835;50.148;19.760;2024-03-06T07:32:51;17.80;49.60
21355;DHT22;10835;50.148;19.760;2024-03-06T07:35:21;17.40;50.10
21355;DHT22;10835;50.148;19.760;2024-03-06T07:37:55;17.20;50.10
21355;DHT22;10835;50.148;19.760;2024-03-06T07:40:24;17.70;50.00
21355;DHT22;10835;50.148;19.760;2024-03-06T07:42:56;17.70;49.20
21355;DHT22;10835;50.148;19.760;2024-03-06T07:45:27;18.40;49.30
21355;DHT22;10835;50.148;19.760;2024-03-06T07:47:56;18.30;48.70
21355;DHT22;10835;50.148;19.760;2024-03-06T07:50:26;18.80;48.40
21355;DHT22;10835;50.148;19.760;2024-03-06T07:52:54;18.50;48.00
21355;DHT22;10835;50.148;19.760;2024-03-06T07:55:23;17.70;49.40
21355;DHT22;10835;50.148;19.760;2024-03-06T07:57:51;17.50;49.70
21355;DHT22;10835;50.148;19.760;2024-03-06T08:00:20;17.00;50.90
21355;DHT22;10835;50.148;19.760;2024-03-06T08:02:49;17.30;50.70
21355;DHT22;10835;50.148;19.760;2024-03-06T08:05:18;18.30;50.10
21355;DHT22;10835;50.148;19.760;2024-03-06T08:07:50;19.20;48.30
21355;DHT22;10835;50.148;19.760;2024-03-06T08:10:18;19.10;47.50
21355;DHT22;10835;50.148;19.760;2024-03-06T08:12:46;18.90;47.70
21355;DHT22;10835;50.148;19.760;2024-03-06T08:15:17;19.60;47.20
21355;DHT22;10835;50.148;19.760;2024-03-06T08:17:45;19.00;46.70
21355;DHT22;10835;50.148;19.760;2024-03-06T08:20:14;19.10;46.60
21355;DHT22;10835;50.148;19.760;2024-03-06T08:22:42;18.70;47.50
21355;DHT22;10835;50.148;19.760;2024-03-06T08:25:13;18.10;49.00
21355;DHT22;10835;50.148;19.760;2024-03-06T08:27:42;18.00;48.90
21355;DHT22;10835;50.148;19.760;2024-03-06T08:30:12;18.00;49.00
21355;DHT22;10835;50.148;19.760;2024-03-06T08:32:41;18.80;47.70
21355;DHT22;10835;50.148;19.760;2024-03-06T08:35:12;18.70;47.40
21355;DHT22;10835;50.148;19.760;2024-03-06T08:37:46;18.50;47.80
21355;DHT22;10835;50.148;19.760;2024-03-06T08:40:17;17.90;48.50
21355;DHT22;10835;50.148;19.760;2024-03-06T08:42:46;18.20;49.00
21355;DHT22;10835;50.148;19.760;2024-03-06T08:45:16;18.10;48.80
21355;DHT22;10835;50.148;19.760;2024-03-06T08:47:46;19.10;47.30
21355;DHT22;10835;50.148;19.760;2024-03-06T08:50:16;17.80;48.40
21355;DHT22;10835;50.148;19.760;2024-03-06T08:52:45;18.40;48.40
21355;DHT22;10835;50.148;19.760;2024-03-06T08:55:14;18.00;47.90
21355;DHT22;10835;50.148;19.760;2024-03-06T08:57:44;18.90;47.50
21355;DHT22;10835;50.148;19.760;2024-03-06T09:00:13;19.00;47.00
21355;DHT22;10835;50.148;19.760;2024-03-06T09:02:42;18.20;47.50
21355;DHT22;10835;50.148;19.760;2024-03-06T09:05:11;18.40;48.50
21355;DHT22;10835;50.148;19.760;2024-03-06T09:07:41;18.60;47.90
21355;DHT22;10835;50.148;19.760;2024-03-06T09:10:10;19.50;47.20
21355;DHT22;10835;50.148;19.760;2024-03-06T09:12:39;18.80;46.90
21355;DHT22;10835;50.148;19.760;2024-03-06T09:15:10;19.40;46.70
21355;DHT22;10835;50.148;19.760;2024-03-06T09:17:39;19.90;46.20
21355;DHT22;10835;50.148;19.760;2024-03-06T09:20:10;20.10;46.20
21355;DHT22;10835;50.148;19.760;2024-03-06T09:22:41;20.70;45.80
21355;DHT22;10835;50.148;19.760;2024-03-06T09:25:10;19.70;45.50
21355;DHT22;10835;50.148;19.760;2024-03-06T09:27:42;19.40;45.90
21355;DHT22;10835;50.148;19.760;2024-03-06T09:30:13;19.60;45.70
21355;DHT22;10835;50.148;19.760;2024-03-06T09:32:44;19.80;46.40
21355;DHT22;10835;50.148;19.760;2024-03-06T09:35:13;19.70;45.90
21355;DHT22;10835;50.148;19.760;2024-03-06T09:37:46;19.40;47.00
21355;DHT22;10835;50.148;19.760;2024-03-06T09:40:22;19.10;46.80
21355;DHT22;10835;50.148;19.760;2024-03-06T09:42:51;19.70;47.10
21355;DHT22;10835;50.148;19.760;2024-03-06T09:45:22;19.20;46.60
21355;DHT22;10835;50.148;19.760;2024-03-06T09:47:51;18.90;48.00
21355;DHT22;10835;50.148;19.760;2024-03-06T09:50:25;19.50;48.00
21355;DHT22;10835;50.148;19.760;2024-03-06T09:52:55;18.70;47.40
21355;DHT22;10835;50.148;19.760;2024-03-06T09:55:25;18.30;48.40
21355;DHT22;10835;50.148;19.760;2024-03-06T09:57:55;18.30;49.20
21355;DHT22;10835;50.148;19.760;2024-03-06T10:00:24;18.00;49.20
21355;DHT22;10835;50.148;19.760;2024-03-06T10:02:57;18.30;49.70
21355;DHT22;10835;50.148;19.760;2024-03-06T10:05:27;17.90;49.70
21355;DHT22;10835;50.148;19.760;2024-03-06T10:07:56;18.00;50.10
21355;DHT22;10835;50.148;19.760;2024-03-06T10:10:26;18.40;50.60
21355;DHT22;10835;50.148;19.760;2024-03-06T10:12:55;19.10;50.40
21355;DHT22;10835;50.148;19.760;2024-03-06T10:15:26;18.40;49.40
21355;DHT22;10835;50.148;19.760;2024-03-06T10:18:12;18.20;49.50
21355;DHT22;10835;50.148;19.760;2024-03-06T10:20:41;18.10;50.10
21355;DHT22;10835;50.148;19.760;2024-03-06T10:23:12;18.00;50.00
21355;DHT22;10835;50.148;19.760;2024-03-06T10:25:43;17.60;50.70
21355;DHT22;10835;50.148;19.760;2024-03-06T10:28:12;17.60;51.10
21355;DHT22;10835;50.148;19.760;2024-03-06T10:30:42;17.40;50.90
21355;DHT22;10835;50.148;19.760;2024-03-06T10:33:13;17.50;51.40
21355;DHT22;10835;50.148;19.760;2024-03-06T10:35:42;17.60;51.10
21355;DHT22;10835;50.148;19.760;2024-03-06T10:38:12;17.70;51.00
21355;DHT22;10835;50.148;19.760;2024-03-06T10:40:41;16.70;51.80
21355;DHT22;10835;50.148;19.760;2024-03-06T10:43:11;17.10;52.90
21355;DHT22;10835;50.148;19.760;2024-03-06T10:45:44;17.80;52.10
21355;DHT22;10835;50.148;19.760;2024-03-06T10:48:17;18.20;50.60
21355;DHT22;10835;50.148;19.760;2024-03-06T10:50:48;18.80;50.00
21355;DHT22;10835;50.148;19.760;2024-03-06T10:53:18;18.10;49.60
21355;DHT22;10835;50.148;19.760;2024-03-06T10:55:50;17.70;50.50
21355;DHT22;10835;50.148;19.760;2024-03-06T10:58:20;18.00;51.40
21355;DHT22;10835;50.148;19.760;2024-03-06T11:00:51;17.70;51.10
21355;DHT22;10835;50.148;19.760;2024-03-06T11:03:23;16.80;51.90
21355;DHT22;10835;50.148;19.760;2024-03-06T11:05:51;16.70;53.00
21355;DHT22;10835;50.148;19.760;2024-03-06T11:08:20;17.40;52.60
21355;DHT22;10835;50.148;19.760;2024-03-06T11:10:50;17.70;51.80
21355;DHT22;10835;50.148;19.760;2024-03-06T11:13:23;17.50;51.70
21355;DHT22;10835;50.148;19.760;2024-03-06T11:15:58;18.10;51.00
21355;DHT22;10835;50.148;19.760;2024-03-06T11:18:43;18.90;50.40
21355;DHT22;10835;50.148;19.760;2024-03-06T11:21:31;19.50;49.30
21355;DHT22;10835;50.148;19.760;2024-03-06T11:24:17;18.90;49.20
21355;DHT22;10835;50.148;19.760;2024-03-06T11:26:54;18.80;50.10
21355;DHT22;10835;50.148;19.760;2024-03-06T11:29:26;18.80;49.40
21355;DHT22;10835;50.148;19.760;2024-03-06T11:32:07;19.10;49.80
21355;DHT22;10835;50.148;19.760;2024-03-06T11:34:39;19.50;49.10
21355;DHT22;10835;50.148;19.760;2024-03-06T11:37:08;19.10;49.40
21355;DHT22;10835;50.148;19.760;2024-03-06T11:39:38;19.20;49.60
21355;DHT22;10835;50.148;19.760;2024-03-06T11:42:09;18.90;49.40
21355;DHT22;10835;50.148;19.760;2024-03-06T11:44:52;18.50;49.60
21355;DHT22;10835;50.148;19.760;2024-03-06T11:47:23;18.50;49.80
21355;DHT22;10835;50.148;19.760;2024-03-06T11:49:53;18.10;50.50
21355;DHT22;10835;50.148;19.760;2024-03-06T11:52:22;17.80;50.90
21355;DHT22;10835;50.148;19.760;2024-03-06T11:54:52;18.00;51.30
21355;DHT22;10835;50.148;19.760;2024-03-06T11:57:21;18.10;50.40
21355;DHT22;10835;50.148;19.760;2024-03-06T11:59:52;18.80;50.70
21355;DHT22;10835;50.148;19.760;2024-03-06T12:02:23;19.20;49.90
21355;DHT22;10835;50.148;19.760;2024-03-06T12:04:52;18.70;49.60
21355;DHT22;10835;50.148;19.760;2024-03-06T12:07:20;18.80;50.10
21355;DHT22;10835;50.148;19.760;2024-03-06T12:09:49;18.70;49.70
21355;DHT22;10835;50.148;19.760;2024-03-06T12:12:21;18.30;50.10
21355;DHT22;10835;50.148;19.760;2024-03-06T12:14:57;18.10;51.00
21355;DHT22;10835;50.148;19.760;2024-03-06T12:17:28;18.50;51.50
21355;DHT22;10835;50.148;19.760;2024-03-06T12:19:59;18.30;50.70
21355;DHT22;10835;50.148;19.760;2024-03-06T12:22:29;18.30;50.80
21355;DHT22;10835;50.148;19.760;2024-03-06T12:24:59;18.00;51.20
21355;DHT22;10835;50.148;19.760;2024-03-06T12:27:28;17.50;51.60
21355;DHT22;10835;50.148;19.760;2024-03-06T12:29:56;18.00;51.60
21355;DHT22;10835;50.148;19.760;2024-03-06T12:32:25;17.70;51.60
21355;DHT22;10835;50.148;19.760;2024-03-06T12:34:58;18.40;52.00
21355;DHT22;10835;50.148;19.760;2024-03-06T12:37:29;18.80;51.40
21355;DHT22;10835;50.148;19.760;2024-03-06T12:39:58;18.10;51.10
21355;DHT22;10835;50.148;19.760;2024-03-06T12:42:27;18.40;51.40
21355;DHT22;10835;50.148;19.760;2024-03-06T12:44:55;18.80;51.30
21355;DHT22;10835;50.148;19.760;2024-03-06T12:47:24;19.80;50.30
21355;DHT22;10835;50.148;19.760;2024-03-06T12:49:53;19.90;48.90
21355;DHT22;10835;50.148;19.760;2024-03-06T12:52:23;19.10;49.60
21355;DHT22;10835;50.148;19.760;2024-03-06T12:54:52;18.60;50.50
21355;DHT22;10835;50.148;19.760;2024-03-06T12:57:20;19.00;50.50
21355;DHT22;10835;50.148;19.760;2024-03-06T12:59:48;19.20;50.30
21355;DHT22;10835;50.148;19.760;2024-03-06T13:02:17;19.20;49.80
21355;DHT22;10835;50.148;19.760;2024-03-06T13:04:46;18.80;50.50
21355;DHT22;10835;50.148;19.760;2024-03-06T13:07:15;18.80;50.90
21355;DHT22;10835;50.148;19.760;2024-03-06T13:09:45;19.50;50.90
21355;DHT22;10835;50.148;19.760;2024-03-06T13:12:14;19.90;50.50
21355;DHT22;10835;50.148;19.760;2024-03-06T13:14:44;19.20;49.50
21355;DHT22;10835;50.148;19.760;2024-03-06T13:17:12;19.00;50.60
21355;DHT22;10835;50.148;19.760;2024-03-06T13:19:42;19.70;50.40
21355;DHT22;10835;50.148;19.760;2024-03-06T13:22:10;19.70;49.80
21355;DHT22;10835;50.148;19.760;2024-03-06T13:24:39;19.80;49.20
21355;DHT22;10835;50.148;19.760;2024-03-06T13:27:12;19.00;49.70
21355;DHT22;10835;50.148;19.760;2024-03-06T13:29:41;19.40;49.90
21355;DHT22;10835;50.148;19.760;2024-03-06T13:32:09;19.40;49.90
21355;DHT22;10835;50.148;19.760;2024-03-06T13:34:38;19.80;50.00
21355;DHT22;10835;50.148;19.760;2024-03-06T13:37:07;19.80;49.80
21355;DHT22;10835;50.148;19.760;2024-03-06T13:39:37;20.20;49.60
21355;DHT22;10835;50.148;19.760;2024-03-06T13:42:07;19.90;49.10
21355;DHT22;10835;50.148;19.760;2024-03-06T13:44:37;19.60;49.80
21355;DHT22;10835;50.148;19.760;2024-03-06T13:47:06;19.90;50.00
21355;DHT22;10835;50.148;19.760;2024-03-06T13:49:37;20.30;49.40
21355;DHT22;10835;50.148;19.760;2024-03-06T13:52:07;20.80;48.90
21355;DHT22;10835;50.148;19.760;2024-03-06T13:54:38;20.80;48.60
21355;DHT22;10835;50.148;19.760;2024-03-06T13:57:07;21.30;48.40
21355;DHT22;10835;50.148;19.760;2024-03-06T13:59:38;20.80;48.10
21355;DHT22;10835;50.148;19.760;2024-03-06T14:02:07;20.30;48.60
21355;DHT22;10835;50.148;19.760;2024-03-06T14:04:36;20.30;48.70
21355;DHT22;10835;50.148;19.760;2024-03-06T14:07:04;20.70;49.00
21355;DHT22;10835;50.148;19.760;2024-03-06T14:09:33;20.50;48.60
21355;DHT22;10835;50.148;19.760;2024-03-06T14:12:02;20.20;48.80
21355;DHT22;10835;50.148;19.760;2024-03-06T14:14:31;20.40;49.30
21355;DHT22;10835;50.148;19.760;2024-03-06T14:17:01;20.10;48.80
21355;DHT22;10835;50.148;19.760;2024-03-06T14:19:30;20.00;49.60
21355;DHT22;10835;50.148;19.760;2024-03-06T14:21:59;20.30;50.00
21355;DHT22;10835;50.148;19.760;2024-03-06T14:24:32;20.60;49.40
21355;DHT22;10835;50.148;19.760;2024-03-06T14:27:00;20.70;48.40
21355;DHT22;10835;50.148;19.760;2024-03-06T14:29:29;20.80;48.30
21355;DHT22;10835;50.148;19.760;2024-03-06T14:31:58;21.20;48.00
21355;DHT22;10835;50.148;19.760;2024-03-06T14:34:28;21.20;48.00
21355;DHT22;10835;50.148;19.760;2024-03-06T14:36:56;21.50;47.70
21355;DHT22;10835;50.148;19.760;2024-03-06T14:39:25;21.50;47.60
21355;DHT22;10835;50.148;19.760;2024-03-06T14:41:53;21.60;47.10
21355;DHT22;10835;50.148;19.760;2024-03-06T14:44:22;21.80;46.80
21355;DHT22;10835;50.148;19.760;2024-03-06T14:46:50;21.80;46.70
21355;DHT22;10835;50.148;19.760;2024-03-06T14:49:19;21.90;46.70
21355;DHT22;10835;50.148;19.760;2024-03-06T14:51:48;22.00;46.40
21355;DHT22;10835;50.148;19.760;2024-03-06T14:54:17;22.00;46.30
21355;DHT22;10835;50.148;19.760;2024-03-06T14:56:46;22.20;46.50
21355;DHT22;10835;50.148;19.760;2024-03-06T14:59:15;22.40;46.10
21355;DHT22;10835;50.148;19.760;2024-03-06T15:01:43;22.40;45.90
21355;DHT22;10835;50.148;19.760;2024-03-06T15:04:14;22.10;46.10
21355;DHT22;10835;50.148;19.760;2024-03-06T15:06:45;22.20;46.00
21355;DHT22;10835;50.148;19.760;2024-03-06T15:09:15;21.90;46.40
21355;DHT22;10835;50.148;19.760;2024-03-06T15:11:49;21.70;46.70
21355;DHT22;10835;50.148;19.760;2024-03-06T15:14:19;21.80;47.00
21355;DHT22;10835;50.148;19.760;2024-03-06T15:16:47;21.90;47.10
21355;DHT22;10835;50.148;19.760;2024-03-06T15:19:15;22.00;46.40
21355;DHT22;10835;50.148;19.760;2024-03-06T15:21:44;22.00;46.40
21355;DHT22;10835;50.148;19.760;2024-03-06T15:24:12;22.00;46.50
21355;DHT22;10835;50.148;19.760;2024-03-06T15:26:42;21.70;46.40
21355;DHT22;10835;50.148;19.760;2024-03-06T15:29:11;21.40;46.90
21355;DHT22;10835;50.148;19.760;2024-03-06T15:31:39;21.50;47.20
21355;DHT22;10835;50.148;19.760;2024-03-06T15:34:09;21.50;47.50
21355;DHT22;10835;50.148;19.760;2024-03-06T15:36:39;21.40;47.40